createdAt,value
2022-12-06T00:01:10.739Z,101488.03
2022-12-06T00:03:39.780Z,101490.75
2022-12-06T00:06:09.271Z,101484.97
2022-12-06T00:08:37.695Z,101486.94
2022-12-06T00:11:07.684Z,101485.31
2022-12-06T00:13:36.140Z,101497.72
2022-12-06T00:16:07.752Z,101488.75
2022-12-06T00:18:37.095Z,101488.63
2022-12-06T00:21:09.719Z,101486.19
2022-12-06T00:23:38.622Z,101488.63
2022-12-06T00:26:07.722Z,101495.78
2022-12-06T00:28:36.123Z,101485.44
2022-12-06T00:31:07.767Z,101488.59
2022-12-06T00:33:37.009Z,101499.38
2022-12-06T00:36:07.770Z,101491.47
2022-12-06T00:38:36.519Z,101493.72
2022-12-06T00:41:06.747Z,101489.03
2022-12-06T00:43:35.465Z,101487.88
2022-12-06T00:46:05.810Z,101484.41
2022-12-06T00:48:33.962Z,101481.75
2022-12-06T00:51:02.126Z,101477.38
2022-12-06T00:53:30.224Z,101479.72
2022-12-06T00:55:58.090Z,101474.38
2022-12-06T00:58:25.939Z,101479.28
2022-12-06T01:00:54.394Z,101479.88
2022-12-06T01:03:24.074Z,101472.41
2022-12-06T01:05:52.329Z,101478.00
2022-12-06T01:08:20.758Z,101464.38
2022-12-06T01:10:55.573Z,101464.75
2022-12-06T01:13:23.513Z,101463.22
2022-12-06T01:15:51.892Z,101463.22
2022-12-06T01:18:19.691Z,101458.91
2022-12-06T01:20:49.265Z,101459.66
2022-12-06T01:23:17.329Z,101456.13
2022-12-06T01:25:54.488Z,101470.69
2022-12-06T01:28:22.389Z,101466.53
2022-12-06T01:30:50.351Z,101458.22
2022-12-06T01:33:18.279Z,101466.69
2022-12-06T01:35:46.294Z,101467.38
2022-12-06T01:38:15.637Z,101462.94
2022-12-06T01:40:45.805Z,101461.81
2022-12-06T01:43:37.757Z,101460.09
2022-12-06T01:46:18.797Z,101466.97
2022-12-06T01:48:48.605Z,101462.25
2022-12-06T01:51:18.212Z,101464.47
2022-12-06T01:53:50.152Z,101456.56
2022-12-06T01:56:18.227Z,101464.59
2022-12-06T01:58:48.131Z,101468.31
2022-12-06T02:01:16.230Z,101461.22
2022-12-06T02:03:45.408Z,101459.81
2022-12-06T02:06:13.691Z,101465.25
2022-12-06T02:08:41.795Z,101462.38
2022-12-06T02:11:11.282Z,101453.91
2022-12-06T02:13:40.408Z,101448.75
2022-12-06T02:16:21.773Z,101450.63
2022-12-06T02:18:54.824Z,101443.09
2022-12-06T02:21:34.945Z,101442.09
2022-12-06T02:24:28.400Z,101438.06
2022-12-06T02:27:10.511Z,101434.78
2022-12-06T02:30:13.319Z,101427.94
2022-12-06T02:32:54.885Z,101434.84
2022-12-06T02:35:31.345Z,101433.81
2022-12-06T02:38:11.464Z,101432.97
2022-12-06T02:40:46.042Z,101431.97
2022-12-06T02:43:17.552Z,101426.66
2022-12-06T02:45:49.006Z,101426.59
2022-12-06T02:48:21.231Z,101428.81
2022-12-06T02:50:52.871Z,101421.00
2022-12-06T02:53:23.482Z,101425.09
2022-12-06T02:55:52.492Z,101423.97
2022-12-06T02:58:20.412Z,101418.19
2022-12-06T03:00:51.756Z,101417.84
2022-12-06T03:03:50.416Z,101420.63
2022-12-06T03:06:45.499Z,101424.88
2022-12-06T03:09:26.038Z,101409.28
2022-12-06T03:12:02.897Z,101411.53
2022-12-06T03:14:39.275Z,101402.28
2022-12-06T03:17:17.002Z,101407.28
2022-12-06T03:19:49.807Z,101396.19
2022-12-06T03:22:24.291Z,101394.53
2022-12-06T03:24:53.789Z,101382.41
2022-12-06T03:27:23.654Z,101393.38
2022-12-06T03:29:56.944Z,101387.31
2022-12-06T03:32:31.327Z,101386.22
2022-12-06T03:35:06.905Z,101387.13
2022-12-06T03:37:38.954Z,101386.22
2022-12-06T03:40:12.719Z,101379.91
2022-12-06T03:42:40.775Z,101389.50
2022-12-06T03:45:12.025Z,101384.38
2022-12-06T03:47:48.090Z,101377.31
2022-12-06T03:50:21.847Z,101381.06
2022-12-06T03:52:52.343Z,101378.31
2022-12-06T03:55:20.228Z,101373.19
2022-12-06T03:57:48.071Z,101379.28
2022-12-06T04:00:17.785Z,101372.53
2022-12-06T04:02:45.810Z,101381.41
2022-12-06T04:05:14.118Z,101370.22
2022-12-06T04:07:43.447Z,101366.50
2022-12-06T04:10:11.995Z,101369.94
2022-12-06T04:12:57.162Z,101362.25
2022-12-06T04:15:25.070Z,101361.81
2022-12-06T04:18:10.421Z,101365.72
2022-12-06T04:20:59.812Z,101357.41
2022-12-06T04:23:29.743Z,101355.03
2022-12-06T04:25:57.557Z,101362.13
2022-12-06T04:28:42.662Z,101354.47
2022-12-06T04:31:27.898Z,101351.06
2022-12-06T04:34:12.997Z,101337.75
2022-12-06T04:36:59.306Z,101332.31
2022-12-06T04:39:29.125Z,101332.69
2022-12-06T04:42:14.803Z,101327.72
2022-12-06T04:44:42.948Z,101324.84
2022-12-06T04:47:10.946Z,101316.81
2022-12-06T04:49:39.335Z,101322.41
2022-12-06T04:52:08.644Z,101318.25
2022-12-06T04:54:38.643Z,101320.84
2022-12-06T04:57:10.974Z,101316.47
2022-12-06T04:59:39.855Z,101320.53
2022-12-06T05:02:10.023Z,101318.41
2022-12-06T05:04:37.890Z,101315.16
2022-12-06T05:07:05.985Z,101310.31
2022-12-06T05:09:33.875Z,101313.34
2022-12-06T05:12:03.147Z,101314.75
2022-12-06T05:14:31.252Z,101319.69
2022-12-06T05:16:59.392Z,101325.56
2022-12-06T05:19:27.861Z,101323.22
2022-12-06T05:21:55.715Z,101324.44
2022-12-06T05:24:23.609Z,101320.47
2022-12-06T05:26:51.497Z,101316.44
2022-12-06T05:29:20.921Z,101315.06
2022-12-06T05:31:48.840Z,101311.81
2022-12-06T05:34:16.785Z,101310.38
2022-12-06T05:36:45.906Z,101312.97
2022-12-06T05:39:13.758Z,101313.03
2022-12-06T05:41:41.620Z,101308.81
2022-12-06T05:44:11.533Z,101314.63
2022-12-06T05:46:40.745Z,101308.31
2022-12-06T05:49:08.700Z,101313.59
2022-12-06T05:51:36.571Z,101314.84
2022-12-06T05:54:06.598Z,101304.38
2022-12-06T05:56:34.804Z,101313.81
2022-12-06T05:59:03.339Z,101307.78
2022-12-06T06:01:31.238Z,101317.84
2022-12-06T06:04:01.745Z,101319.53
2022-12-06T06:06:30.009Z,101322.50
2022-12-06T06:08:57.885Z,101319.13
2022-12-06T06:11:25.718Z,101310.88
2022-12-06T06:13:54.463Z,101315.81
2022-12-06T06:16:22.513Z,101310.94
2022-12-06T06:18:50.400Z,101307.72
2022-12-06T06:21:19.625Z,101302.75
2022-12-06T06:23:47.510Z,101304.72
2022-12-06T06:26:15.317Z,101312.22
2022-12-06T06:28:43.199Z,101310.75
2022-12-06T06:31:11.092Z,101305.38
2022-12-06T06:33:39.029Z,101317.91
2022-12-06T06:36:07.483Z,101315.25
2022-12-06T06:38:36.860Z,101327.06
2022-12-06T06:41:05.459Z,101324.06
2022-12-06T06:43:33.724Z,101327.63
2022-12-06T06:46:03.322Z,101322.25
2022-12-06T06:48:33.114Z,101319.69
2022-12-06T06:51:03.399Z,101322.78
2022-12-06T06:53:31.399Z,101325.84
2022-12-06T06:56:00.646Z,101315.75
2022-12-06T06:58:28.554Z,101314.47
2022-12-06T07:00:57.880Z,101324.44
2022-12-06T07:03:26.708Z,101312.22
2022-12-06T07:05:56.019Z,101329.13
2022-12-06T07:08:25.273Z,101313.50
2022-12-06T07:10:54.243Z,101315.19
2022-12-06T07:13:24.899Z,101314.22
2022-12-06T07:15:53.228Z,101325.84
2022-12-06T07:18:22.042Z,101315.97
2022-12-06T07:20:50.495Z,101321.69
2022-12-06T07:23:19.729Z,101316.81
2022-12-06T07:25:47.548Z,101317.69
2022-12-06T07:28:15.399Z,101318.50
2022-12-06T07:30:46.185Z,101323.41
2022-12-06T07:33:14.335Z,101327.44
2022-12-06T07:36:11.047Z,101330.66
2022-12-06T07:38:30.281Z,101328.72
2022-12-06T07:41:04.834Z,101329.34
2022-12-06T07:43:50.555Z,101323.53
2022-12-06T07:46:19.840Z,101324.19
2022-12-06T07:48:47.767Z,101329.28
2022-12-06T07:51:15.670Z,101325.78
2022-12-06T07:53:43.644Z,101327.97
2022-12-06T07:56:11.966Z,101327.13
2022-12-06T07:58:39.914Z,101333.31
2022-12-06T08:01:07.982Z,101325.91
2022-12-06T08:03:37.485Z,101326.38
2022-12-06T08:06:05.826Z,101320.91
2022-12-06T08:08:33.890Z,101324.50
2022-12-06T08:11:02.715Z,101328.34
2022-12-06T08:13:31.404Z,101322.59
2022-12-06T08:15:59.684Z,101320.41
2022-12-06T08:18:27.751Z,101326.25
2022-12-06T08:20:58.870Z,101328.25
2022-12-06T08:23:33.697Z,101327.19
2022-12-06T08:26:04.281Z,101330.22
2022-12-06T08:28:33.421Z,101322.06
2022-12-06T08:31:03.215Z,101322.81
2022-12-06T08:33:34.307Z,101329.84
2022-12-06T08:36:08.989Z,101326.25
2022-12-06T08:38:37.321Z,101325.19
2022-12-06T08:41:05.952Z,101320.47
2022-12-06T08:43:34.002Z,101327.69
2022-12-06T08:46:02.092Z,101329.56
2022-12-06T08:48:30.130Z,101323.13
2022-12-06T08:51:02.646Z,101329.84
2022-12-06T08:53:31.946Z,101321.66
2022-12-06T08:56:02.836Z,101327.81
2022-12-06T08:58:31.398Z,101321.59
2022-12-06T09:00:59.472Z,101324.94
2022-12-06T09:03:27.730Z,101321.19
2022-12-06T09:05:55.665Z,101328.47
2022-12-06T09:08:24.013Z,101327.22
2022-12-06T09:10:53.491Z,101326.59
2022-12-06T09:13:21.715Z,101325.09
2022-12-06T09:15:49.780Z,101317.44
2022-12-06T09:18:17.819Z,101317.00
2022-12-06T09:20:45.931Z,101315.81
2022-12-06T09:23:14.178Z,101320.38
2022-12-06T09:25:43.311Z,101318.81
2022-12-06T09:28:13.384Z,101319.03
2022-12-06T09:30:41.411Z,101309.31
2022-12-06T09:33:09.427Z,101309.66
2022-12-06T09:35:38.035Z,101304.81
2022-12-06T09:38:07.121Z,101317.72
2022-12-06T09:40:43.319Z,101311.19
2022-12-06T09:43:27.340Z,101311.44
2022-12-06T09:46:12.021Z,101309.59
2022-12-06T09:49:08.915Z,101298.84
2022-12-06T09:51:51.645Z,101299.44
2022-12-06T09:54:33.887Z,101300.69
2022-12-06T09:57:09.301Z,101288.81
2022-12-06T09:59:51.235Z,101301.16
2022-12-06T10:02:33.200Z,101297.38
2022-12-06T10:05:21.039Z,101298.09
2022-12-06T10:07:59.976Z,101296.06
2022-12-06T10:10:38.019Z,101292.03
2022-12-06T10:13:14.202Z,101288.81
2022-12-06T10:15:54.210Z,101281.56
2022-12-06T10:18:42.100Z,101281.25
2022-12-06T10:21:17.584Z,101275.78
2022-12-06T10:24:01.790Z,101282.06
2022-12-06T10:26:38.285Z,101278.59
2022-12-06T10:29:16.348Z,101265.53
2022-12-06T10:31:57.531Z,101271.72
2022-12-06T10:34:45.810Z,101273.28
2022-12-06T10:37:32.501Z,101274.09
2022-12-06T10:40:04.484Z,101271.78
2022-12-06T10:42:38.541Z,101275.31
2022-12-06T10:45:32.420Z,101267.13
2022-12-06T10:48:07.992Z,101266.63
2022-12-06T10:50:40.510Z,101266.72
2022-12-06T10:53:15.555Z,101261.81
2022-12-06T10:55:50.290Z,101261.25
2022-12-06T10:58:29.848Z,101253.53
2022-12-06T11:01:00.609Z,101252.84
2022-12-06T11:03:35.433Z,101251.16
2022-12-06T11:06:10.600Z,101241.97
2022-12-06T11:08:43.434Z,101249.31
2022-12-06T11:11:16.650Z,101246.94
2022-12-06T11:13:48.944Z,101241.25
2022-12-06T11:16:19.933Z,101239.53
2022-12-06T11:18:50.277Z,101236.63
2022-12-06T11:21:28.187Z,101241.03
2022-12-06T11:24:02.752Z,101242.25
2022-12-06T11:26:38.487Z,101239.13
2022-12-06T11:29:13.058Z,101244.78
2022-12-06T11:31:46.859Z,101234.78
2022-12-06T11:34:20.221Z,101233.41
2022-12-06T11:36:52.933Z,101232.28
2022-12-06T11:39:24.810Z,101233.22
2022-12-06T11:41:57.167Z,101233.22
2022-12-06T11:44:27.731Z,101231.28
2022-12-06T11:46:58.711Z,101224.94
2022-12-06T11:49:32.917Z,101224.16
2022-12-06T11:52:07.187Z,101221.09
2022-12-06T11:54:39.577Z,101225.56
2022-12-06T11:57:22.242Z,101212.84
2022-12-06T12:00:15.143Z,101210.47
2022-12-06T12:02:44.278Z,101207.44
2022-12-06T12:05:20.720Z,101206.03
2022-12-06T12:07:51.731Z,101203.22
2022-12-06T12:10:29.365Z,101207.59
2022-12-06T12:13:15.043Z,101195.72
2022-12-06T12:15:52.382Z,101202.28
2022-12-06T12:18:26.269Z,101196.75
2022-12-06T12:20:57.547Z,101199.00
2022-12-06T12:23:29.505Z,101196.66
2022-12-06T12:26:02.362Z,101204.00
2022-12-06T12:28:32.234Z,101193.06
2022-12-06T12:31:01.768Z,101190.66
2022-12-06T12:33:30.383Z,101188.09
2022-12-06T12:36:16.415Z,101194.03
2022-12-06T12:38:51.321Z,101187.63
2022-12-06T12:41:27.141Z,101191.44
2022-12-06T12:44:28.545Z,101192.16
2022-12-06T12:46:53.801Z,101190.13
2022-12-06T12:49:31.977Z,101182.31
2022-12-06T12:52:03.229Z,101188.25
2022-12-06T12:54:33.555Z,101183.47
2022-12-06T12:57:03.398Z,101180.44
2022-12-06T12:59:38.533Z,101183.84
2022-12-06T13:02:18.626Z,101172.34
2022-12-06T13:04:59.838Z,101173.66
2022-12-06T13:07:43.214Z,101171.00
2022-12-06T13:10:20.143Z,101175.38
2022-12-06T13:12:51.979Z,101174.81
2022-12-06T13:15:24.922Z,101174.38
2022-12-06T13:17:59.977Z,101170.72
2022-12-06T13:20:31.271Z,101167.91
2022-12-06T13:23:04.866Z,101175.53
2022-12-06T13:25:33.321Z,101169.41
2022-12-06T13:28:05.773Z,101176.22
2022-12-06T13:30:36.729Z,101175.53
2022-12-06T13:33:08.397Z,101175.78
2022-12-06T13:35:40.327Z,101165.59
2022-12-06T13:38:27.225Z,101165.81
2022-12-06T13:40:56.482Z,101163.31
2022-12-06T13:44:00.467Z,101161.63
2022-12-06T13:46:32.224Z,101174.66
2022-12-06T13:49:05.863Z,101164.19
2022-12-06T13:51:49.829Z,101154.50
2022-12-06T13:54:39.952Z,101149.47
2022-12-06T13:57:25.955Z,101162.31
2022-12-06T13:59:53.879Z,101167.53
2022-12-06T14:02:51.661Z,101165.41
2022-12-06T14:08:37.301Z,101168.72
2022-12-06T14:11:19.780Z,101161.22
2022-12-06T14:13:49.595Z,101169.22
2022-12-06T14:16:26.802Z,101161.00
2022-12-06T14:18:54.828Z,101161.00
2022-12-06T14:21:27.480Z,101165.63
2022-12-06T14:23:55.396Z,101159.53
2022-12-06T14:26:27.448Z,101159.38
2022-12-06T14:28:57.473Z,101159.44
2022-12-06T14:31:28.255Z,101154.69
2022-12-06T14:33:57.370Z,101152.34
2022-12-06T14:36:29.077Z,101149.50
2022-12-06T14:39:02.691Z,101153.47
2022-12-06T14:41:53.299Z,101151.41
2022-12-06T14:44:22.899Z,101151.22
2022-12-06T14:46:51.077Z,101146.53
2022-12-06T14:49:39.596Z,101153.41
2022-12-06T14:52:26.343Z,101152.50
2022-12-06T14:55:09.551Z,101153.13
2022-12-06T14:57:46.621Z,101144.38
2022-12-06T15:00:26.274Z,101141.25
2022-12-06T15:03:23.862Z,101149.81
2022-12-06T15:06:09.252Z,101147.25
2022-12-06T15:08:39.228Z,101148.84
2022-12-06T15:11:42.507Z,101147.97
2022-12-06T15:14:17.276Z,101150.41
2022-12-06T15:16:46.766Z,101151.91
2022-12-06T15:19:16.135Z,101156.84
2022-12-06T15:21:43.979Z,101151.22
2022-12-06T15:24:18.107Z,101153.56
2022-12-06T15:26:46.109Z,101147.63
2022-12-06T15:29:15.798Z,101152.41
2022-12-06T15:31:45.719Z,101149.34
2022-12-06T15:34:25.160Z,101150.50
2022-12-06T15:37:09.045Z,101157.22
2022-12-06T15:39:41.400Z,101151.47
2022-12-06T15:42:16.932Z,101157.28
2022-12-06T15:44:49.597Z,101154.50
2022-12-06T15:47:18.181Z,101154.91
2022-12-06T15:49:46.064Z,101154.69
2022-12-06T15:52:17.407Z,101157.50
2022-12-06T15:54:45.585Z,101148.59
2022-12-06T15:57:13.460Z,101147.66
2022-12-06T15:59:41.329Z,101147.47
2022-12-06T16:02:16.413Z,101147.75
2022-12-06T16:04:45.358Z,101152.91
2022-12-06T16:07:20.005Z,101154.22
2022-12-06T16:09:48.449Z,101151.25
2022-12-06T16:12:16.344Z,101160.47
2022-12-06T16:14:44.210Z,101157.94
2022-12-06T16:17:12.050Z,101164.38
2022-12-06T16:19:59.071Z,101161.56
2022-12-06T16:22:40.799Z,101171.22
2022-12-06T16:25:09.393Z,101157.66
2022-12-06T16:27:37.346Z,101157.78
2022-12-06T16:30:05.917Z,101161.63
2022-12-06T16:32:34.129Z,101167.03
2022-12-06T16:35:03.704Z,101157.59
2022-12-06T16:37:31.756Z,101155.78
2022-12-06T16:39:59.603Z,101153.56
2022-12-06T16:42:27.444Z,101156.50
2022-12-06T16:44:55.281Z,101167.63
2022-12-06T16:49:49.867Z,101161.81
2022-12-06T16:52:19.124Z,101160.63
2022-12-06T16:54:46.991Z,101157.66
2022-12-06T16:57:15.640Z,101160.16
2022-12-06T16:59:43.615Z,101163.09
2022-12-06T17:02:27.449Z,101161.59
2022-12-06T17:04:56.230Z,101160.59
2022-12-06T17:07:25.444Z,101160.56
2022-12-06T17:09:54.049Z,101161.94
2022-12-06T17:12:21.930Z,101167.47
2022-12-06T17:14:49.810Z,101166.28
2022-12-06T17:17:20.171Z,101170.44
2022-12-06T17:19:48.562Z,101169.44
2022-12-06T17:22:18.638Z,101159.38
2022-12-06T17:24:47.855Z,101161.53
2022-12-06T17:27:16.730Z,101167.47
2022-12-06T17:29:45.434Z,101169.19
2022-12-06T17:32:14.036Z,101178.25
2022-12-06T17:34:41.885Z,101178.09
2022-12-06T17:37:09.811Z,101172.16
2022-12-06T17:39:37.777Z,101170.78
2022-12-06T17:42:24.470Z,101166.31
2022-12-06T17:44:52.609Z,101183.41
2022-12-06T17:47:20.913Z,101175.75
2022-12-06T17:49:48.968Z,101174.53
2022-12-06T17:52:16.960Z,101167.91
2022-12-06T17:54:44.816Z,101171.34
2022-12-06T17:57:17.590Z,101181.91
2022-12-06T17:59:46.932Z,101178.09
2022-12-06T18:02:17.478Z,101176.09
2022-12-06T18:04:46.508Z,101178.44
2022-12-06T18:07:15.084Z,101169.78
2022-12-06T18:09:42.944Z,101181.31
2022-12-06T18:12:13.134Z,101171.00
2022-12-06T18:14:42.335Z,101169.72
2022-12-06T18:17:10.483Z,101178.69
2022-12-06T18:19:40.359Z,101169.69
2022-12-06T18:22:08.587Z,101177.31
2022-12-06T18:24:36.714Z,101173.88
2022-12-06T18:27:05.457Z,101170.09
2022-12-06T18:29:34.271Z,101181.19
2022-12-06T18:32:04.251Z,101176.31
2022-12-06T18:34:32.342Z,101172.94
2022-12-06T18:37:00.279Z,101164.31
2022-12-06T18:39:28.255Z,101171.94
2022-12-06T18:41:56.475Z,101167.72
2022-12-06T18:44:24.643Z,101163.66
2022-12-06T18:46:52.573Z,101160.03
2022-12-06T18:49:21.815Z,101158.66
2022-12-06T18:51:49.747Z,101163.53
2022-12-06T18:54:17.656Z,101153.34
2022-12-06T18:56:45.499Z,101153.19
2022-12-06T18:59:13.625Z,101155.00
2022-12-06T19:01:42.137Z,101158.38
2022-12-06T19:04:14.310Z,101152.91
2022-12-06T19:06:45.416Z,101155.09
2022-12-06T19:09:15.542Z,101146.38
2022-12-06T19:11:46.717Z,101157.09
2022-12-06T19:14:15.680Z,101150.09
2022-12-06T19:16:45.851Z,101150.25
2022-12-06T19:19:17.094Z,101146.00
2022-12-06T19:21:46.900Z,101149.31
2022-12-06T19:24:17.139Z,101148.84
2022-12-06T19:26:45.280Z,101153.03
2022-12-06T19:29:13.818Z,101148.38
2022-12-06T19:31:41.744Z,101148.06
2022-12-06T19:34:15.498Z,101147.56
2022-12-06T19:36:43.647Z,101149.75
2022-12-06T19:39:13.761Z,101152.69
2022-12-06T19:42:00.045Z,101150.84
2022-12-06T19:44:28.862Z,101141.53
2022-12-06T19:46:57.572Z,101148.75
2022-12-06T19:49:27.222Z,101150.38
2022-12-06T19:51:55.228Z,101144.97
2022-12-06T19:54:25.996Z,101142.94
2022-12-06T19:56:56.921Z,101141.38
2022-12-06T19:59:27.019Z,101145.13
2022-12-06T20:01:57.975Z,101147.53
2022-12-06T20:04:28.971Z,101141.72
2022-12-06T20:06:56.876Z,101138.28
2022-12-06T20:09:28.355Z,101142.47
2022-12-06T20:12:02.036Z,101142.25
2022-12-06T20:14:31.262Z,101134.78
2022-12-06T20:16:59.131Z,101131.84
2022-12-06T20:19:27.049Z,101134.63
2022-12-06T20:21:54.919Z,101133.94
2022-12-06T20:24:24.337Z,101135.03
2022-12-06T20:26:54.994Z,101134.91
2022-12-06T20:29:23.774Z,101139.28
2022-12-06T20:31:52.295Z,101131.94
2022-12-06T20:34:20.443Z,101130.91
2022-12-06T20:36:48.631Z,101129.19
2022-12-06T20:39:21.852Z,101129.03
2022-12-06T20:41:49.894Z,101132.81
2022-12-06T20:44:19.734Z,101124.25
2022-12-06T20:46:49.554Z,101126.13
2022-12-06T20:49:17.512Z,101118.94
2022-12-06T20:51:49.694Z,101103.84
2022-12-06T20:54:19.800Z,101112.56
2022-12-06T20:56:51.412Z,101118.72
2022-12-06T20:59:21.425Z,101112.84
2022-12-06T21:01:49.410Z,101112.06
2022-12-06T21:04:17.924Z,101109.50
2022-12-06T21:06:45.841Z,101111.16
2022-12-06T21:09:13.785Z,101116.69
2022-12-06T21:11:41.720Z,101107.69
2022-12-06T21:14:12.434Z,101111.56
2022-12-06T21:16:43.207Z,101108.41
2022-12-06T21:19:13.779Z,101106.31
2022-12-06T21:21:44.531Z,101097.66
2022-12-06T21:24:14.188Z,101109.66
2022-12-06T21:26:42.215Z,101109.66
2022-12-06T21:29:15.872Z,101105.63
2022-12-06T21:31:45.682Z,101113.94
2022-12-06T21:34:14.431Z,101119.81
2022-12-06T21:36:44.993Z,101113.50
2022-12-06T21:39:13.467Z,101117.59
2022-12-06T21:41:41.336Z,101107.41
2022-12-06T21:44:09.247Z,101103.31
2022-12-06T21:46:37.182Z,101101.63
2022-12-06T21:49:06.483Z,101099.97
2022-12-06T21:51:34.329Z,101096.72
2022-12-06T21:54:02.207Z,101108.19
2022-12-06T21:56:31.569Z,101109.00
2022-12-06T21:59:01.237Z,101109.91
2022-12-06T22:01:30.554Z,101115.38
2022-12-06T22:04:00.333Z,101109.63
2022-12-06T22:06:31.401Z,101120.53
2022-12-06T22:09:01.323Z,101118.16
2022-12-06T22:11:30.672Z,101115.38
2022-12-06T22:13:59.590Z,101110.97
2022-12-06T22:16:28.302Z,101116.38
2022-12-06T22:18:56.470Z,101114.25
2022-12-06T22:21:26.989Z,101109.91
2022-12-06T22:23:57.964Z,101112.56
2022-12-06T22:26:28.172Z,101104.84
2022-12-06T22:28:56.417Z,101106.06
2022-12-06T22:31:25.929Z,101097.13
2022-12-06T22:33:54.556Z,101098.78
2022-12-06T22:36:22.677Z,101096.81
2022-12-06T22:38:51.215Z,101092.69
2022-12-06T22:41:21.188Z,101103.16
2022-12-06T22:43:52.157Z,101090.81
2022-12-06T22:46:20.868Z,101101.66
2022-12-06T22:48:49.449Z,101096.63
2022-12-06T22:51:21.859Z,101092.34
2022-12-06T22:53:54.496Z,101090.03
2022-12-06T22:56:24.050Z,101092.34
2022-12-06T22:58:53.674Z,101087.84
2022-12-06T23:01:26.832Z,101092.91
2022-12-06T23:03:55.541Z,101092.91
2022-12-06T23:06:25.307Z,101086.34
2022-12-06T23:08:54.328Z,101082.38
2022-12-06T23:11:25.996Z,101084.63
2022-12-06T23:13:54.823Z,101078.09
2022-12-06T23:16:24.825Z,101079.09
2022-12-06T23:18:52.972Z,101079.59
2022-12-06T23:21:22.637Z,101079.75
2022-12-06T23:23:52.396Z,101083.94
2022-12-06T23:26:24.877Z,101079.81
2022-12-06T23:28:53.015Z,101083.50
2022-12-06T23:31:22.779Z,101083.56
2022-12-06T23:33:53.667Z,101082.56
2022-12-06T23:36:23.807Z,101080.72
2022-12-06T23:38:52.421Z,101080.28
2022-12-06T23:41:21.908Z,101078.19
2022-12-06T23:43:51.863Z,101075.44
2022-12-06T23:46:22.930Z,101071.50
2022-12-06T23:48:50.929Z,101070.22
2022-12-06T23:51:20.695Z,101054.13
2022-12-06T23:53:52.355Z,101069.34
2022-12-06T23:56:22.376Z,101059.66
2022-12-06T23:58:52.950Z,101062.25
